Time;durP1;ratioP1;P1;durP2;ratioP2;P2;SDS_P1;SDS_P2;PMS_P1;PMS_P2;Temp;Humidity;BMP_temperature;BMP_pressure;BME280_temperature;BME280_humidity;BME280_pressure;Samples;Min_cycle;Max_cycle;Signal;HPM_P1;HPM_P2
2024/01/02 00:01:34;;;;;;;24.45;5.75;;;5.10;99.90;;;;;;5061301;28;20035;-69
2024/01/02 00:04:00;;;;;;;31.52;6.13;;;5.00;99.90;;;;;;5060447;28;20041;-68
2024/01/02 00:06:25;;;;;;;29.33;6.30;;;5.00;99.90;;;;;;5061417;28;20044;-69
2024/01/02 00:08:51;;;;;;;38.83;6.57;;;4.90;99.90;;;;;;5060833;28;20470;-69
2024/01/02 00:11:16;;;;;;;30.83;7.45;;;4.80;99.90;;;;;;5061108;28;20105;-68
2024/01/02 00:13:42;;;;;;;37.75;6.28;;;4.80;99.90;;;;;;5061175;28;20048;-69
2024/01/02 00:16:08;;;;;;;35.80;6.53;;;4.80;99.90;;;;;;5060044;28;20029;-67
2024/01/02 00:18:34;;;;;;;31.02;6.22;;;4.70;99.90;;;;;;5060954;28;20022;-69
2024/01/02 00:20:59;;;;;;;30.65;6.93;;;4.70;99.90;;;;;;5061852;28;20082;-67
2024/01/02 00:23:25;;;;;;;36.58;6.97;;;4.70;99.90;;;;;;5061946;28;20088;-68
2024/01/02 00:25:51;;;;;;;25.23;6.53;;;4.80;99.90;;;;;;5060270;28;20059;-68
2024/01/02 00:28:18;;;;;;;29.30;7.25;;;4.70;99.90;;;;;;5060692;28;20041;-68
2024/01/02 00:30:43;;;;;;;36.08;6.80;;;4.70;99.90;;;;;;5059777;28;20036;-70
2024/01/02 00:33:09;;;;;;;31.02;6.13;;;4.70;99.90;;;;;;5061903;28;20033;-70
2024/01/02 00:35:34;;;;;;;31.00;6.30;;;4.70;99.90;;;;;;5061716;28;20029;-68
2024/01/02 00:38:00;;;;;;;36.90;6.32;;;4.70;99.90;;;;;;5059730;28;20032;-68
2024/01/02 00:40:26;;;;;;;31.42;6.82;;;4.60;99.90;;;;;;5061555;28;21049;-66
2024/01/02 00:42:52;;;;;;;25.25;6.07;;;4.60;99.90;;;;;;5061686;28;20028;-68
2024/01/02 00:45:18;;;;;;;33.63;6.68;;;4.70;99.90;;;;;;5060248;28;20086;-69
2024/01/02 00:47:43;;;;;;;26.90;6.00;;;4.70;99.90;;;;;;5061683;28;20036;-68
2024/01/02 00:50:09;;;;;;;36.40;5.70;;;4.70;99.90;;;;;;5061826;28;20060;-67
2024/01/02 00:52:35;;;;;;;28.20;6.05;;;4.70;99.90;;;;;;5060893;28;20036;-68
2024/01/02 00:55:05;;;;;;;33.05;5.93;;;4.70;99.90;;;;;;5061311;28;20037;-68
2024/01/02 00:57:31;;;;;;;35.28;5.75;;;4.70;99.90;;;;;;5060752;28;20068;-68
2024/01/02 01:00:00;;;;;;;39.60;6.18;;;4.70;99.90;;;;;;5059993;28;20029;-69
2024/01/02 01:02:25;;;;;;;33.90;5.97;;;4.70;99.90;;;;;;5060051;28;20081;-67
2024/01/02 01:04:51;;;;;;;29.77;5.85;;;4.70;99.90;;;;;;5060261;28;20074;-67
2024/01/02 01:07:17;;;;;;;34.55;6.45;;;4.70;99.90;;;;;;5059965;28;20138;-69
2024/01/02 01:09:42;;;;;;;29.08;6.15;;;4.70;99.90;;;;;;5060044;28;20052;-68
2024/01/02 01:12:09;;;;;;;28.33;5.60;;;4.70;99.90;;;;;;5060082;28;20047;-67
2024/01/02 01:14:35;;;;;;;31.15;5.57;;;4.70;99.90;;;;;;5059736;28;20093;-69
2024/01/02 01:17:01;;;;;;;31.02;5.85;;;4.70;99.90;;;;;;5059850;28;20032;-68
2024/01/02 01:19:26;;;;;;;21.83;6.28;;;4.70;99.90;;;;;;5057685;28;20041;-69
2024/01/02 01:21:52;;;;;;;31.08;5.13;;;4.70;99.90;;;;;;5059888;28;20036;-69
2024/01/02 01:24:18;;;;;;;33.50;5.80;;;4.60;99.90;;;;;;5059875;28;20144;-69
2024/01/02 01:26:44;;;;;;;34.03;6.43;;;4.60;99.90;;;;;;5059540;28;20032;-70
2024/01/02 01:29:10;;;;;;;33.88;6.22;;;4.60;99.90;;;;;;5060001;28;20025;-69
2024/01/02 01:31:35;;;;;;;40.22;7.35;;;4.60;99.90;;;;;;5059713;28;20227;-69
2024/01/02 01:34:01;;;;;;;37.53;5.95;;;4.60;99.90;;;;;;5059217;28;20037;-68
2024/01/02 01:36:26;;;;;;;31.02;5.78;;;4.60;99.90;;;;;;5058285;28;20143;-69
2024/01/02 01:38:52;;;;;;;27.05;5.40;;;4.60;99.90;;;;;;5059366;28;20025;-68
2024/01/02 01:41:18;;;;;;;30.63;5.93;;;4.60;99.90;;;;;;5059269;28;20021;-68
2024/01/02 01:43:46;;;;;;;37.67;6.85;;;4.60;99.90;;;;;;5060000;28;20037;-70
2024/01/02 01:46:14;;;;;;;28.15;5.05;;;4.60;99.90;;;;;;5060674;28;20025;-68
2024/01/02 01:48:40;;;;;;;27.75;5.57;;;4.60;99.90;;;;;;5060039;28;20123;-68
2024/01/02 01:51:06;;;;;;;36.35;6.53;;;4.60;99.90;;;;;;5058938;28;20436;-66
2024/01/02 01:53:32;;;;;;;34.05;5.78;;;4.60;99.90;;;;;;5057731;28;20039;-67
2024/01/02 01:55:58;;;;;;;34.92;6.70;;;4.60;99.90;;;;;;5058625;28;20040;-70
2024/01/02 01:58:26;;;;;;;25.88;5.85;;;4.50;99.90;;;;;;5059961;28;20029;-69
2024/01/02 02:00:51;;;;;;;25.73;6.07;;;4.60;99.90;;;;;;5059126;28;20036;-69
2024/01/02 02:03:18;;;;;;;31.92;6.28;;;4.60;99.90;;;;;;5058845;28;20044;-68
2024/01/02 02:05:45;;;;;;;40.03;6.13;;;4.70;99.90;;;;;;5059238;28;20544;-67
2024/01/02 02:08:11;;;;;;;18.30;6.05;;;4.60;99.90;;;;;;5058971;28;20840;-68
2024/01/02 02:10:36;;;;;;;18.98;5.38;;;4.70;99.90;;;;;;5058793;28;20025;-67
2024/01/02 02:13:02;;;;;;;30.67;6.47;;;4.70;99.90;;;;;;5058855;28;20064;-68
2024/01/02 02:15:27;;;;;;;25.42;6.15;;;4.70;99.90;;;;;;5058624;28;20029;-68
2024/01/02 02:17:53;;;;;;;21.30;5.90;;;4.70;99.90;;;;;;5058685;28;20036;-67
2024/01/02 02:20:18;;;;;;;24.30;5.85;;;4.70;99.90;;;;;;5058468;28;20032;-68
2024/01/02 02:22:51;;;;;;;23.67;5.35;;;4.70;99.90;;;;;;5058870;28;20111;-68
2024/01/02 02:25:18;;;;;;;32.22;5.80;;;4.70;99.90;;;;;;5058021;28;20060;-68
2024/01/02 02:27:45;;;;;;;31.48;6.57;;;4.70;99.90;;;;;;5058517;28;20036;-67
2024/01/02 02:30:11;;;;;;;37.53;6.07;;;4.80;99.90;;;;;;5058065;28;20032;-69
2024/01/02 02:32:37;;;;;;;26.92;5.88;;;4.80;99.90;;;;;;5058175;28;20032;-70
2024/01/02 02:35:04;;;;;;;32.10;6.85;;;4.80;99.90;;;;;;5058259;28;20036;-68
2024/01/02 02:37:29;;;;;;;26.17;5.88;;;4.80;99.90;;;;;;5058325;28;20070;-71
2024/01/02 02:39:55;;;;;;;29.13;6.30;;;4.80;99.90;;;;;;5059378;28;20025;-69
2024/01/02 02:42:20;;;;;;;28.50;6.32;;;4.80;99.90;;;;;;5059281;28;20040;-70
2024/01/02 02:44:46;;;;;;;22.77;5.85;;;4.80;99.90;;;;;;5059499;28;20029;-68
2024/01/02 02:47:11;;;;;;;28.52;5.90;;;4.80;99.90;;;;;;5059424;28;20057;-69
2024/01/02 02:49:37;;;;;;;22.77;6.53;;;4.80;99.90;;;;;;5058498;28;20029;-67
2024/01/02 02:52:03;;;;;;;29.73;6.03;;;4.80;99.90;;;;;;5059141;28;20033;-68
2024/01/02 02:54:29;;;;;;;21.95;5.47;;;4.90;99.90;;;;;;5058836;28;20036;-68
2024/01/02 02:56:56;;;;;;;24.38;5.70;;;4.90;99.90;;;;;;5058656;28;20434;-69
2024/01/02 02:59:21;;;;;;;20.42;5.30;;;4.90;99.90;;;;;;5057548;28;20033;-68
2024/01/02 03:01:47;;;;;;;38.78;5.30;;;4.90;99.90;;;;;;5057043;28;20202;-69
2024/01/02 03:04:13;;;;;;;20.50;4.47;;;4.90;99.90;;;;;;5057840;28;20052;-69
2024/01/02 03:06:39;;;;;;;35.95;4.82;;;5.00;99.90;;;;;;5058302;28;20084;-69
2024/01/02 03:09:04;;;;;;;25.75;5.00;;;5.10;99.90;;;;;;5060781;28;20036;-68
2024/01/02 03:11:30;;;;;;;34.20;5.15;;;5.00;99.90;;;;;;5061675;28;20099;-68
2024/01/02 03:13:55;;;;;;;21.50;4.88;;;5.10;99.90;;;;;;5062044;28;20097;-67
2024/01/02 03:16:23;;;;;;;29.40;5.05;;;5.10;99.90;;;;;;5061937;28;20086;-68
2024/01/02 03:18:48;;;;;;;21.80;4.82;;;5.10;99.90;;;;;;5061858;28;20025;-71
2024/01/02 03:21:14;;;;;;;25.88;4.95;;;5.10;99.90;;;;;;5060805;28;20021;-68
2024/01/02 03:23:40;;;;;;;19.98;4.40;;;5.10;99.90;;;;;;5062174;28;20084;-68
2024/01/02 03:26:06;;;;;;;20.42;5.25;;;5.10;99.90;;;;;;5061649;28;20426;-69
2024/01/02 03:28:31;;;;;;;17.50;4.50;;;5.20;99.90;;;;;;5061996;28;20037;-71
2024/01/02 03:30:57;;;;;;;20.75;4.25;;;5.20;99.90;;;;;;5060401;28;20097;-71
2024/01/02 03:33:23;;;;;;;20.52;4.18;;;5.20;99.90;;;;;;5061545;28;20044;-73
2024/01/02 03:35:49;;;;;;;20.27;4.20;;;5.20;99.90;;;;;;5062205;28;20037;-68
2024/01/02 03:38:15;;;;;;;30.15;4.85;;;5.20;99.90;;;;;;5062055;28;20428;-68
2024/01/02 03:40:41;;;;;;;20.67;4.38;;;5.20;99.90;;;;;;5061116;28;20013;-68
2024/01/02 03:43:07;;;;;;;25.83;5.05;;;5.20;99.90;;;;;;5062105;28;20563;-64
2024/01/02 03:45:32;;;;;;;21.70;4.18;;;5.30;99.90;;;;;;5061547;28;20028;-68
2024/01/02 03:48:00;;;;;;;22.73;4.95;;;5.20;99.90;;;;;;5061573;28;20020;-68
2024/01/02 03:50:26;;;;;;;30.23;4.13;;;5.30;99.90;;;;;;5061540;28;20564;-69
2024/01/02 03:52:51;;;;;;;22.08;4.38;;;5.20;99.90;;;;;;5061310;28;20048;-71
2024/01/02 03:55:17;;;;;;;16.42;4.10;;;5.20;99.90;;;;;;5059991;28;20043;-70
2024/01/02 03:57:43;;;;;;;20.33;4.50;;;5.20;99.90;;;;;;5060161;28;20099;-69
2024/01/02 04:00:09;;;;;;;27.42;4.30;;;5.20;99.90;;;;;;5059786;28;20040;-69
2024/01/02 04:02:34;;;;;;;21.75;4.60;;;5.20;99.90;;;;;;5061092;28;20037;-69
2024/01/02 04:05:00;;;;;;;28.73;5.07;;;5.20;99.90;;;;;;5062281;28;20029;-70
2024/01/02 04:07:25;;;;;;;20.88;4.43;;;5.20;99.90;;;;;;5061977;28;20041;-69
2024/01/02 04:09:51;;;;;;;19.05;3.97;;;5.20;99.90;;;;;;5062121;28;20028;-69
2024/01/02 04:12:17;;;;;;;20.75;4.13;;;5.10;99.90;;;;;;5060751;28;20036;-70
2024/01/02 04:14:42;;;;;;;25.45;4.50;;;5.20;99.90;;;;;;5061691;28;20062;-69
2024/01/02 04:17:08;;;;;;;15.63;3.47;;;5.20;99.90;;;;;;5062399;28;21126;-71
2024/01/02 04:19:34;;;;;;;17.13;3.80;;;5.20;99.90;;;;;;5060611;28;20017;-68
2024/01/02 04:21:59;;;;;;;21.40;3.92;;;5.30;99.90;;;;;;5061325;28;20035;-70
2024/01/02 04:24:25;;;;;;;16.58;4.15;;;5.10;99.90;;;;;;5059210;28;20053;-68
2024/01/02 04:26:51;;;;;;;16.83;4.20;;;5.10;99.90;;;;;;5060438;28;20044;-68
2024/01/02 04:29:17;;;;;;;23.17;4.22;;;5.20;99.90;;;;;;5061412;28;20080;-70
2024/01/02 04:31:43;;;;;;;30.65;3.70;;;5.10;99.90;;;;;;5061722;28;20021;-70
2024/01/02 04:34:08;;;;;;;23.63;4.40;;;5.20;99.90;;;;;;5059837;28;20166;-68
2024/01/02 04:36:34;;;;;;;19.98;3.72;;;5.20;99.90;;;;;;5060483;28;20033;-69
2024/01/02 04:38:59;;;;;;;20.58;4.25;;;5.10;99.90;;;;;;5060796;28;20017;-71
2024/01/02 04:41:25;;;;;;;25.85;4.32;;;5.10;99.90;;;;;;5060773;28;20088;-69
2024/01/02 04:43:50;;;;;;;22.63;4.43;;;5.10;99.90;;;;;;5060223;28;20103;-69
2024/01/02 04:46:16;;;;;;;24.25;4.00;;;5.10;99.90;;;;;;5060546;28;20441;-70
2024/01/02 04:48:42;;;;;;;25.17;3.97;;;5.10;99.90;;;;;;5060495;28;20037;-69
2024/01/02 04:51:07;;;;;;;17.58;3.60;;;5.10;99.90;;;;;;5060173;28;20096;-70
2024/01/02 04:53:33;;;;;;;21.13;3.70;;;5.10;99.90;;;;;;5060463;28;20017;-70
2024/01/02 04:55:58;;;;;;;15.35;3.38;;;5.10;99.90;;;;;;5059707;28;20033;-70
2024/01/02 04:58:24;;;;;;;25.95;3.75;;;5.20;99.90;;;;;;5059620;28;20021;-72
2024/01/02 05:00:49;;;;;;;20.65;3.92;;;5.00;99.90;;;;;;5060172;28;20033;-73
2024/01/02 05:03:15;;;;;;;17.30;3.88;;;5.00;99.90;;;;;;5056210;28;20420;-70
2024/01/02 05:05:41;;;;;;;17.20;3.97;;;5.10;99.90;;;;;;5059910;28;20029;-69
2024/01/02 05:08:06;;;;;;;26.48;4.72;;;5.00;99.90;;;;;;5058351;28;20021;-71
2024/01/02 05:10:32;;;;;;;24.05;3.65;;;5.00;99.90;;;;;;5059371;28;20060;-72
2024/01/02 05:12:58;;;;;;;22.60;3.72;;;5.00;99.90;;;;;;5060553;28;20017;-72
2024/01/02 05:15:23;;;;;;;23.08;2.78;;;5.00;99.90;;;;;;5058602;28;20374;-70
2024/01/02 05:17:49;;;;;;;14.88;2.88;;;5.10;99.90;;;;;;5059724;28;20084;-69
2024/01/02 05:20:15;;;;;;;17.35;2.78;;;5.00;99.90;;;;;;5060029;28;20033;-73
2024/01/02 05:22:40;;;;;;;19.05;3.78;;;5.10;99.90;;;;;;5058892;28;20091;-72
2024/01/02 05:25:07;;;;;;;13.15;3.08;;;5.00;99.90;;;;;;5058810;28;20367;-72
2024/01/02 05:27:33;;;;;;;18.90;3.00;;;5.00;99.90;;;;;;5058445;28;20705;-72
2024/01/02 05:29:59;;;;;;;18.65;3.00;;;5.10;99.90;;;;;;5059003;28;20024;-72
2024/01/02 05:32:24;;;;;;;16.40;2.53;;;5.10;99.90;;;;;;5057359;28;20043;-73
2024/01/02 05:34:50;;;;;;;17.83;2.75;;;5.10;99.90;;;;;;5057236;28;20040;-73
2024/01/02 05:37:16;;;;;;;16.58;3.08;;;5.10;99.90;;;;;;5059879;28;20040;-71
2024/01/02 05:39:42;;;;;;;14.30;2.63;;;5.10;99.90;;;;;;5059928;28;21052;-71
2024/01/02 05:42:08;;;;;;;25.75;2.92;;;5.10;99.90;;;;;;5060026;28;20037;-72
2024/01/02 05:44:33;;;;;;;15.68;2.50;;;5.10;99.90;;;;;;5059164;28;20029;-70
2024/01/02 05:46:59;;;;;;;21.83;2.63;;;5.10;99.90;;;;;;5057223;28;20017;-69
2024/01/02 05:49:24;;;;;;;18.85;3.67;;;5.10;99.90;;;;;;5060148;28;20099;-70
2024/01/02 05:51:50;;;;;;;21.33;3.08;;;5.20;99.90;;;;;;5059024;28;20028;-71
2024/01/02 05:54:15;;;;;;;14.05;2.10;;;5.10;99.90;;;;;;5059576;28;20049;-72
2024/01/02 05:56:41;;;;;;;11.18;2.47;;;5.10;99.90;;;;;;5058081;28;20057;-72
2024/01/02 05:59:07;;;;;;;15.07;3.00;;;5.10;99.90;;;;;;5057911;28;20064;-72
2024/01/02 06:01:32;;;;;;;15.77;2.67;;;5.20;99.90;;;;;;5057266;28;20025;-74
2024/01/02 06:03:58;;;;;;;18.20;2.92;;;5.20;99.90;;;;;;5059009;28;20072;-71
2024/01/02 06:06:26;;;;;;;18.60;3.13;;;5.20;99.90;;;;;;5059021;28;20025;-72
2024/01/02 06:08:51;;;;;;;14.88;3.08;;;5.10;99.90;;;;;;5057453;28;20033;-69
2024/01/02 06:11:17;;;;;;;9.95;2.28;;;5.20;99.90;;;;;;5059219;28;20042;-71
2024/01/02 06:13:42;;;;;;;17.73;3.38;;;5.20;99.90;;;;;;5056387;28;20028;-72
2024/01/02 06:16:11;;;;;;;16.90;3.28;;;5.20;99.90;;;;;;5056653;28;20053;-72
2024/01/02 06:18:37;;;;;;;12.43;2.90;;;5.20;99.90;;;;;;5058661;28;20021;-72
2024/01/02 06:21:04;;;;;;;12.00;2.35;;;5.20;99.90;;;;;;5058454;28;20027;-71
2024/01/02 06:23:32;;;;;;;11.40;2.50;;;5.20;99.90;;;;;;5057394;28;20025;-72
2024/01/02 06:26:00;;;;;;;19.10;2.72;;;5.30;99.90;;;;;;5059736;28;20383;-73
2024/01/02 06:28:26;;;;;;;12.15;2.97;;;5.20;99.90;;;;;;5058064;28;20116;-73
2024/01/02 06:30:51;;;;;;;20.42;3.42;;;5.30;99.90;;;;;;5057019;28;20080;-70
2024/01/02 06:33:17;;;;;;;18.52;3.08;;;5.30;99.90;;;;;;5059203;28;20139;-72
2024/01/02 06:35:43;;;;;;;14.30;2.65;;;5.30;99.90;;;;;;5057712;28;20037;-72
2024/01/02 06:38:09;;;;;;;13.95;3.22;;;5.30;99.90;;;;;;5059806;28;20025;-72
2024/01/02 06:40:39;;;;;;;13.63;2.95;;;5.30;99.90;;;;;;5058156;28;20078;-72
2024/01/02 06:43:04;;;;;;;15.80;2.60;;;5.30;99.90;;;;;;5056600;28;20025;-71
2024/01/02 06:45:31;;;;;;;9.68;2.35;;;5.30;99.90;;;;;;5058698;28;20020;-72
2024/01/02 06:47:57;;;;;;;14.38;2.53;;;5.40;99.90;;;;;;5057214;28;20134;-72
2024/01/02 06:50:22;;;;;;;10.85;2.10;;;5.40;99.90;;;;;;5057141;28;20478;-71
2024/01/02 06:52:48;;;;;;;14.85;3.13;;;5.30;99.90;;;;;;5056262;28;20033;-72
2024/01/02 06:55:14;;;;;;;11.40;2.80;;;5.30;99.90;;;;;;5057397;28;20179;-74
2024/01/02 06:57:40;;;;;;;11.35;3.45;;;5.30;99.90;;;;;;5057527;28;20043;-71
2024/01/02 07:00:06;;;;;;;8.10;2.70;;;5.30;99.90;;;;;;5058481;28;20029;-71
2024/01/02 07:02:32;;;;;;;15.65;4.13;;;5.30;99.90;;;;;;5053802;28;20038;-71
2024/01/02 07:04:59;;;;;;;22.95;4.70;;;5.30;99.90;;;;;;5055113;28;20032;-72
2024/01/02 07:07:24;;;;;;;12.85;3.85;;;5.30;99.90;;;;;;5054584;28;20029;-71
2024/01/02 07:09:50;;;;;;;19.63;4.38;;;5.50;99.90;;;;;;5056314;28;20029;-69
2024/01/02 07:12:15;;;;;;;12.75;3.10;;;5.40;99.90;;;;;;5056764;28;20041;-70
2024/01/02 07:14:41;;;;;;;16.20;2.50;;;5.40;99.90;;;;;;5057962;28;20037;-71
2024/01/02 07:17:07;;;;;;;16.73;3.85;;;5.40;99.90;;;;;;5054955;28;20097;-71
2024/01/02 07:19:33;;;;;;;9.50;3.13;;;5.50;99.90;;;;;;5056882;28;20032;-72
2024/01/02 07:21:58;;;;;;;10.48;2.88;;;5.40;99.90;;;;;;5053662;28;20047;-71
2024/01/02 07:24:24;;;;;;;11.18;3.15;;;5.40;99.90;;;;;;5056943;28;20153;-70
2024/01/02 07:26:50;;;;;;;16.60;4.07;;;5.40;99.90;;;;;;5056300;28;20033;-71
2024/01/02 07:29:15;;;;;;;14.77;4.60;;;5.40;99.90;;;;;;5056505;28;20077;-71
2024/01/02 07:31:41;;;;;;;19.98;4.57;;;5.50;99.90;;;;;;5058657;28;20044;-73
2024/01/02 07:34:07;;;;;;;11.77;2.92;;;5.40;99.90;;;;;;5058801;28;20029;-72
2024/01/02 07:36:32;;;;;;;13.10;3.50;;;5.40;99.90;;;;;;5058746;28;20005;-72
2024/01/02 07:38:58;;;;;;;13.85;4.05;;;5.40;99.90;;;;;;5056154;28;20461;-71
2024/01/02 07:41:23;;;;;;;14.65;4.13;;;5.60;99.90;;;;;;5056483;28;20033;-72
2024/01/02 07:43:49;;;;;;;10.98;3.08;;;5.50;99.90;;;;;;5054742;28;20025;-72
2024/01/02 07:46:16;;;;;;;13.48;4.40;;;5.50;99.90;;;;;;5055546;28;20075;-71
2024/01/02 07:48:41;;;;;;;16.25;5.10;;;5.50;99.90;;;;;;5057258;28;20485;-70
2024/01/02 07:51:07;;;;;;;6.22;2.17;;;5.50;99.90;;;;;;5055851;28;20059;-71
2024/01/02 07:53:33;;;;;;;15.77;3.97;;;5.50;99.90;;;;;;5055030;28;20033;-73
2024/01/02 07:56:01;;;;;;;16.38;3.90;;;5.50;99.90;;;;;;5059858;28;20526;-71
2024/01/02 07:58:27;;;;;;;16.58;4.63;;;5.50;99.90;;;;;;5058085;28;20025;-72
2024/01/02 08:00:52;;;;;;;15.63;4.82;;;5.40;99.90;;;;;;5060171;28;20104;-71
2024/01/02 08:03:18;;;;;;;14.32;3.90;;;5.50;99.90;;;;;;5060755;28;20071;-73
2024/01/02 08:05:43;;;;;;;7.70;2.95;;;5.50;99.90;;;;;;5059410;28;20033;-71
2024/01/02 08:08:09;;;;;;;10.32;3.28;;;5.50;99.90;;;;;;5061080;28;20622;-70
2024/01/02 08:10:34;;;;;;;15.10;3.55;;;5.50;99.90;;;;;;5061067;28;20029;-70
2024/01/02 08:13:00;;;;;;;15.00;3.55;;;5.50;99.90;;;;;;5059081;28;20041;-70
2024/01/02 08:15:26;;;;;;;8.20;2.92;;;5.40;99.90;;;;;;5060146;28;20041;-72
2024/01/02 08:17:51;;;;;;;8.60;3.00;;;5.50;99.90;;;;;;5059663;28;20028;-70
2024/01/02 08:20:17;;;;;;;9.60;3.47;;;5.50;99.90;;;;;;5060694;28;20076;-70
2024/01/02 08:22:43;;;;;;;12.93;3.78;;;5.50;99.90;;;;;;5059757;28;20021;-71
2024/01/02 08:25:08;;;;;;;7.53;3.40;;;5.50;99.90;;;;;;5059334;28;20091;-72
2024/01/02 08:27:35;;;;;;;11.25;3.72;;;5.50;99.90;;;;;;5055824;28;20032;-71
2024/01/02 08:30:01;;;;;;;14.57;4.32;;;5.70;99.90;;;;;;5059500;28;20025;-69
2024/01/02 08:32:28;;;;;;;6.15;2.85;;;5.50;99.90;;;;;;5056675;28;20044;-70
2024/01/02 08:34:54;;;;;;;6.35;2.60;;;5.70;99.90;;;;;;5059283;28;20379;-70
2024/01/02 08:37:19;;;;;;;3.42;1.85;;;5.50;99.90;;;;;;5059900;28;20029;-70
2024/01/02 08:39:45;;;;;;;11.00;3.35;;;5.50;99.90;;;;;;5059374;28;20044;-68
2024/01/02 08:42:10;;;;;;;13.55;2.85;;;5.50;99.90;;;;;;5058323;28;21944;-69
2024/01/02 08:44:36;;;;;;;5.70;1.83;;;5.50;99.90;;;;;;5060002;28;20036;-71
2024/01/02 08:47:02;;;;;;;11.45;3.50;;;5.50;99.90;;;;;;5058799;28;20102;-68
2024/01/02 08:49:27;;;;;;;8.93;2.58;;;5.50;99.90;;;;;;5057781;28;20509;-70
2024/01/02 08:51:53;;;;;;;8.25;2.35;;;5.60;99.90;;;;;;5057034;28;20032;-69
2024/01/02 08:54:19;;;;;;;7.70;2.88;;;5.50;99.90;;;;;;5059963;28;20033;-70
2024/01/02 08:56:44;;;;;;;6.03;2.75;;;5.50;99.90;;;;;;5059212;28;20025;-69
2024/01/02 08:59:10;;;;;;;4.20;2.25;;;5.60;99.90;;;;;;5052730;28;20068;-72
2024/01/02 09:01:36;;;;;;;10.75;2.75;;;5.50;99.90;;;;;;5037291;28;20339;-70
2024/01/02 09:04:01;;;;;;;7.47;2.45;;;5.50;99.90;;;;;;5054621;28;20048;-70
2024/01/02 09:06:27;;;;;;;5.60;1.80;;;5.50;99.90;;;;;;5048072;28;20163;-70
2024/01/02 09:08:52;;;;;;;6.22;2.72;;;5.60;99.90;;;;;;5059118;28;20035;-69
2024/01/02 09:11:19;;;;;;;6.80;2.15;;;5.60;99.90;;;;;;5048666;28;20044;-69
2024/01/02 09:13:45;;;;;;;3.20;1.60;;;5.70;99.90;;;;;;5054024;28;20121;-72
2024/01/02 09:16:11;;;;;;;4.50;2.17;;;5.70;99.90;;;;;;5051803;28;20065;-70
2024/01/02 09:18:36;;;;;;;5.32;2.03;;;5.60;99.90;;;;;;5059028;28;20032;-68
2024/01/02 09:21:02;;;;;;;4.53;2.20;;;5.60;99.90;;;;;;5055823;28;20119;-68
2024/01/02 09:23:27;;;;;;;6.32;2.40;;;5.60;99.90;;;;;;5058613;28;20033;-71
2024/01/02 09:25:59;;;;;;;2.38;0.98;;;5.60;99.90;;;;;;5053702;28;20055;-69
2024/01/02 09:28:25;;;;;;;6.85;1.67;;;5.60;99.90;;;;;;5057750;28;20097;-69
2024/01/02 09:30:51;;;;;;;9.27;1.30;;;5.60;99.90;;;;;;5054789;28;20057;-71
2024/01/02 09:33:17;;;;;;;1.85;1.05;;;5.60;99.90;;;;;;5056971;28;20021;-70
2024/01/02 09:35:43;;;;;;;3.20;1.45;;;5.60;99.90;;;;;;5057165;28;20079;-72
2024/01/02 09:38:08;;;;;;;3.40;1.30;;;5.60;99.90;;;;;;5055223;28;20037;-71
2024/01/02 09:40:59;;;;;;;4.25;1.58;;;5.60;99.90;;;;;;5057603;28;20037;-70
2024/01/02 09:43:42;;;;;;;1.55;0.90;;;5.60;99.90;;;;;;5055179;28;20033;-70
2024/01/02 09:46:17;;;;;;;1.15;0.65;;;5.50;99.90;;;;;;5057804;28;20078;-69
2024/01/02 09:48:58;;;;;;;3.47;1.13;;;5.60;99.90;;;;;;5058862;28;20033;-71
2024/01/02 09:51:49;;;;;;;1.40;1.00;;;5.60;99.90;;;;;;5058210;28;20025;-68
2024/01/02 09:54:26;;;;;;;2.35;1.10;;;5.60;99.90;;;;;;5034491;28;20060;-68
2024/01/02 09:57:02;;;;;;;2.97;1.02;;;5.60;99.90;;;;;;5055191;28;20029;-69
2024/01/02 09:59:42;;;;;;;2.45;1.20;;;5.60;99.90;;;;;;5056735;28;20083;-68
2024/01/02 10:02:30;;;;;;;3.53;1.20;;;5.60;99.90;;;;;;5056628;28;20473;-71
2024/01/02 10:05:08;;;;;;;1.90;1.25;;;5.50;99.90;;;;;;5057795;28;20025;-68
2024/01/02 10:07:49;;;;;;;3.50;1.40;;;5.60;99.90;;;;;;5055309;28;20478;-71
2024/01/02 10:10:36;;;;;;;5.57;1.98;;;5.60;99.90;;;;;;5053826;28;20055;-69
2024/01/02 10:13:36;;;;;;;4.07;1.67;;;5.60;99.90;;;;;;5056895;28;20122;-68
2024/01/02 10:16:34;;;;;;;4.05;1.52;;;5.60;99.90;;;;;;5047394;28;20045;-69
2024/01/02 10:19:12;;;;;;;5.10;1.90;;;5.60;99.90;;;;;;5057049;28;20041;-70
2024/01/02 10:22:11;;;;;;;3.63;1.80;;;5.60;99.90;;;;;;5055541;28;20081;-70
2024/01/02 10:24:58;;;;;;;5.93;2.30;;;5.60;99.90;;;;;;5059006;28;20165;-70
2024/01/02 10:27:55;;;;;;;4.30;1.60;;;5.60;99.90;;;;;;5057564;28;20036;-68
2024/01/02 10:30:23;;;;;;;2.75;1.50;;;5.60;99.90;;;;;;5057571;28;20055;-70
2024/01/02 10:33:28;;;;;;;2.78;1.50;;;5.60;99.90;;;;;;5057296;28;20119;-69
2024/01/02 10:36:00;;;;;;;1.95;1.50;;;5.60;99.90;;;;;;5058166;28;20032;-70
2024/01/02 10:38:36;;;;;;;3.03;1.80;;;5.60;99.90;;;;;;5054888;28;20029;-69
2024/01/02 10:41:13;;;;;;;2.22;1.50;;;5.70;99.90;;;;;;5055960;28;20037;-69
2024/01/02 10:44:15;;;;;;;2.92;1.55;;;5.60;99.90;;;;;;5056477;28;20084;-69
2024/01/02 10:47:09;;;;;;;2.42;1.70;;;5.70;99.90;;;;;;5055171;28;20037;-68
2024/01/02 10:49:40;;;;;;;3.28;1.73;;;5.70;99.90;;;;;;5056994;28;20025;-69
2024/01/02 10:52:25;;;;;;;3.42;1.70;;;5.70;99.90;;;;;;5055263;28;20025;-70
2024/01/02 10:55:07;;;;;;;3.15;1.63;;;5.80;99.90;;;;;;5057194;28;20041;-70
2024/01/02 10:58:06;;;;;;;4.13;1.95;;;5.80;99.90;;;;;;5054594;28;20032;-69
2024/01/02 11:00:38;;;;;;;2.90;1.60;;;5.80;99.90;;;;;;5054654;28;20039;-70
2024/01/02 11:03:10;;;;;;;3.47;1.90;;;5.80;99.90;;;;;;5054877;28;20057;-69
2024/01/02 11:05:50;;;;;;;3.80;2.17;;;5.80;99.90;;;;;;5057110;28;20029;-68
2024/01/02 11:08:26;;;;;;;7.88;1.80;;;5.90;99.90;;;;;;5058770;28;20111;-71
2024/01/02 11:11:04;;;;;;;3.83;2.13;;;5.90;99.90;;;;;;5059109;28;20041;-69
2024/01/02 11:13:30;;;;;;;3.30;1.95;;;6.00;99.90;;;;;;5057364;28;20047;-69
2024/01/02 11:16:06;;;;;;;3.67;2.15;;;5.90;99.90;;;;;;5058801;28;20037;-69
2024/01/02 11:18:34;;;;;;;3.30;2.00;;;5.90;99.90;;;;;;5057821;28;20018;-70
2024/01/02 11:21:35;;;;;;;3.75;1.73;;;6.00;99.90;;;;;;5057422;28;20033;-69
2024/01/02 11:24:03;;;;;;;3.13;1.80;;;6.00;99.90;;;;;;5056440;28;20025;-70
2024/01/02 11:26:41;;;;;;;2.78;1.70;;;6.00;99.90;;;;;;5055594;28;20466;-67
2024/01/02 11:29:18;;;;;;;4.07;2.05;;;6.00;99.90;;;;;;5056629;28;20078;-67
2024/01/02 11:31:46;;;;;;;4.00;2.38;;;6.00;99.90;;;;;;5056823;28;20128;-69
2024/01/02 11:34:30;;;;;;;5.32;2.80;;;6.00;99.90;;;;;;5060627;28;20499;-68
2024/01/02 11:37:32;;;;;;;6.07;3.22;;;6.10;99.90;;;;;;5059340;28;20072;-68
2024/01/02 11:40:03;;;;;;;5.18;2.95;;;6.10;99.90;;;;;;5060433;28;20052;-69
2024/01/02 11:42:31;;;;;;;7.03;3.30;;;6.10;99.90;;;;;;5058161;28;20056;-70
2024/01/02 11:45:08;;;;;;;8.48;4.10;;;6.20;99.90;;;;;;5059953;28;20029;-69
2024/01/02 11:47:46;;;;;;;8.82;4.10;;;6.20;99.90;;;;;;5061413;28;20035;-69
2024/01/02 11:50:17;;;;;;;14.32;4.45;;;6.20;99.90;;;;;;5061026;28;20028;-71
2024/01/02 11:53:09;;;;;;;8.88;4.53;;;6.20;99.90;;;;;;5061805;28;20033;-71
2024/01/02 11:55:44;;;;;;;14.05;5.00;;;6.30;99.90;;;;;;5058262;28;20060;-68
2024/01/02 11:58:13;;;;;;;15.05;5.55;;;6.30;99.90;;;;;;5059885;28;20037;-68
2024/01/02 12:01:07;;;;;;;15.82;5.68;;;6.30;99.90;;;;;;5059340;28;20036;-69
2024/01/02 12:03:55;;;;;;;14.60;5.35;;;6.40;99.90;;;;;;5060085;28;20099;-70
2024/01/02 12:06:31;;;;;;;14.10;5.65;;;6.40;99.90;;;;;;5059621;28;20064;-70
2024/01/02 12:09:04;;;;;;;15.20;6.45;;;6.50;99.90;;;;;;5060906;28;20021;-69
2024/01/02 12:11:33;;;;;;;11.50;5.87;;;6.40;99.90;;;;;;5060707;28;20032;-70
2024/01/02 12:14:06;;;;;;;17.85;6.70;;;6.50;99.90;;;;;;5058908;28;20374;-69
2024/01/02 12:16:36;;;;;;;13.30;6.38;;;6.50;99.90;;;;;;5060984;28;20053;-71
2024/01/02 12:19:05;;;;;;;11.30;5.78;;;6.50;99.90;;;;;;5060332;28;20032;-71
2024/01/02 12:21:33;;;;;;;11.45;6.15;;;6.50;99.90;;;;;;5061105;28;20025;-68
2024/01/02 12:24:01;;;;;;;11.73;5.78;;;6.50;99.90;;;;;;5060826;28;20039;-68
2024/01/02 12:26:33;;;;;;;13.07;6.57;;;6.50;99.90;;;;;;5059563;28;20052;-68
2024/01/02 12:29:00;;;;;;;13.57;5.97;;;6.50;99.90;;;;;;5060648;28;20017;-70
2024/01/02 12:31:49;;;;;;;15.55;6.88;;;6.50;99.90;;;;;;5058653;28;20029;-69
2024/01/02 12:34:26;;;;;;;15.98;6.97;;;6.50;99.90;;;;;;5060122;28;20045;-70
2024/01/02 12:37:19;;;;;;;17.65;7.72;;;6.50;99.90;;;;;;5059101;28;20076;-69
2024/01/02 12:39:50;;;;;;;16.33;7.32;;;6.60;99.90;;;;;;5060821;28;20028;-69
2024/01/02 12:42:21;;;;;;;13.73;6.88;;;6.60;99.90;;;;;;5059610;28;20024;-71
2024/01/02 12:44:52;;;;;;;15.68;7.78;;;6.60;99.90;;;;;;5060138;28;20024;-72
2024/01/02 12:47:22;;;;;;;16.10;7.40;;;6.60;99.90;;;;;;5058487;28;20021;-71
2024/01/02 12:50:11;;;;;;;18.58;7.78;;;6.60;99.90;;;;;;5053925;28;20033;-72
2024/01/02 12:53:05;;;;;;;18.48;7.60;;;6.70;99.90;;;;;;5038197;28;20037;-70
2024/01/02 12:55:36;;;;;;;17.10;7.70;;;6.70;99.90;;;;;;5038903;28;20052;-70
2024/01/02 12:58:04;;;;;;;21.60;8.05;;;6.70;99.90;;;;;;5039192;28;20021;-70
2024/01/02 13:00:31;;;;;;;18.60;7.90;;;6.70;99.90;;;;;;5040146;28;20029;-71